23/10 a 2/11 - Tren de vaguadas; templado a cálido e inestable [calor extremo N y TS severas C y N]

Avatar de Usuario
Ernest
Mensajes: 11610
Registrado: Vie Jul 17, 2009 10:54 pm
Ubicación: Balvanera, CABA

23/10 a 2/11 - Tren de vaguadas; templado a cálido e inestable [calor extremo N y TS severas C y N]

Mensaje por Ernest » Mié Oct 23, 2019 8:51 pm

Seguimos por aquí.
19,7 con 40 % HR marcaba el OCBA a las 20, en un breve interregno seco por esta zona que se cortará a partir de mañana a la noche.
Última edición por Ernest el Dom Oct 27, 2019 5:19 pm, editado 2 veces en total.
Did you want to talk about the weather, or were you just making chitchat?

Twitter: @ErnestoMeteo

Avatar de Usuario
pupy
Mensajes: 2473
Registrado: Mar Mar 02, 2010 7:15 pm
Ubicación: Cordoba capital

Re: 23/10 a 2/11 - Tren de vaguadas; templado a algo cálido, húmedo e inestable

Mensaje por pupy » Mié Oct 23, 2019 9:21 pm

Cordoba capital T 18.4 C parcialmente nublado H: 67%

Avatar de Usuario
Diecha
Mensajes: 12413
Registrado: Jue Ago 25, 2011 9:31 pm
Ubicación: Lomas de Zamora

Re: 23/10 a 2/11 - Tren de vaguadas; templado a algo cálido, húmedo e inestable

Mensaje por Diecha » Mié Oct 23, 2019 9:42 pm

Imagen

Imagen
Spoiler
Mostrar
Imagen
Imagen
Imagen
Imagen
Imagen
Imagen
Última edición por Diecha el Jue Oct 24, 2019 9:40 am, editado 1 vez en total.

Avatar de Usuario
Ezequiel95
Mensajes: 9049
Registrado: Jue Dic 10, 2015 12:33 pm
Ubicación: Merlo, Buenos Aires
Contactar:

Re: 23/10 a 2/11 - Tren de vaguadas; templado a algo cálido, húmedo e inestable

Mensaje por Ezequiel95 » Jue Oct 24, 2019 12:39 am

Noche despejada y algo fresca

Avatar de Usuario
Diecha
Mensajes: 12413
Registrado: Jue Ago 25, 2011 9:31 pm
Ubicación: Lomas de Zamora

Re: 23/10 a 2/11 - Tren de vaguadas; templado a algo cálido, húmedo e inestable

Mensaje por Diecha » Jue Oct 24, 2019 9:31 am

Buenas.

Imagen

Imagen
Spoiler
Mostrar
Imagen
Imagen
Imagen
Imagen
Imagen
Imagen
Imagen
Imagen

Avatar de Usuario
Marg Tor
Mensajes: 1757
Registrado: Jue Sep 20, 2018 8:54 pm
Ubicación: Rosario

Re: 23/10 a 2/11 - Tren de vaguadas; templado a algo cálido, húmedo e inestable

Mensaje por Marg Tor » Jue Oct 24, 2019 12:54 pm

Imagen
Nena, vi un rayo... vuelvo en unas horas...
Te duele el calor y la humedad? Adermicina.
EMA Villa Gdor. Gálvez
EMA Villa Gdor. Gálvez Cooperativa

Avatar de Usuario
Diecha
Mensajes: 12413
Registrado: Jue Ago 25, 2011 9:31 pm
Ubicación: Lomas de Zamora

Re: 23/10 a 2/11 - Tren de vaguadas; templado a algo cálido, húmedo e inestable

Mensaje por Diecha » Jue Oct 24, 2019 1:16 pm

- General Pico 13 hs: SAZG 241600Z 02013KT CAVOK 24/07 Q1012
- Santa Rosa 13 hs: SAZR 241600Z 34012KT CAVOK 26/07 Q1013

Imagen
Imagen
Imagen

Avatar de Usuario
Diecha
Mensajes: 12413
Registrado: Jue Ago 25, 2011 9:31 pm
Ubicación: Lomas de Zamora

Re: 23/10 a 2/11 - Tren de vaguadas; templado a algo cálido, húmedo e inestable

Mensaje por Diecha » Jue Oct 24, 2019 2:19 pm

- General Pico 13 hs: SAZG 241700Z 34012KT CAVOK 26/10 Q1012
- Santa Rosa 13 hs: SAZR 241700Z 34010KT CAVOK 28/08 Q1013

Imagen
Imagen
Imagen

Avatar de Usuario
Diecha
Mensajes: 12413
Registrado: Jue Ago 25, 2011 9:31 pm
Ubicación: Lomas de Zamora

Re: 23/10 a 2/11 - Tren de vaguadas; templado a algo cálido, húmedo e inestable

Mensaje por Diecha » Jue Oct 24, 2019 4:07 pm

Imagen

Imagen
Spoiler
Mostrar
Imagen
Imagen
Imagen
Imagen
Imagen
Imagen
Imagen
Imagen
Imagen
Imagen
Última edición por Diecha el Jue Oct 24, 2019 6:47 pm, editado 1 vez en total.

Avatar de Usuario
Diecha
Mensajes: 12413
Registrado: Jue Ago 25, 2011 9:31 pm
Ubicación: Lomas de Zamora

Re: 23/10 a 2/11 - Tren de vaguadas; templado a algo cálido, húmedo e inestable

Mensaje por Diecha » Jue Oct 24, 2019 4:12 pm




Responder